createdAt,value
2018-09-22T00:00:37.588Z,56.00
2018-09-22T00:03:06.992Z,54.90
2018-09-22T00:05:36.219Z,54.70
2018-09-22T00:08:05.438Z,55.30
2018-09-22T00:10:34.853Z,54.80
2018-09-22T00:13:04.283Z,54.60
2018-09-22T00:15:33.582Z,54.60
2018-09-22T00:18:02.784Z,54.50
2018-09-22T00:20:32.082Z,54.60
2018-09-22T00:23:01.581Z,54.80
2018-09-22T00:25:30.896Z,54.50
2018-09-22T00:28:00.214Z,54.80
2018-09-22T00:30:29.912Z,55.30
2018-09-22T00:32:59.447Z,55.20
2018-09-22T00:35:28.935Z,54.90
2018-09-22T00:37:58.122Z,54.60
2018-09-22T00:40:27.395Z,54.80
2018-09-22T00:42:56.631Z,55.00
2018-09-22T00:45:25.860Z,54.70
2018-09-22T00:47:54.971Z,54.40
2018-09-22T00:50:24.295Z,54.50
2018-09-22T00:52:54.159Z,54.80
2018-09-22T00:55:23.403Z,54.90
2018-09-22T00:57:52.776Z,54.80
2018-09-22T01:00:22.485Z,54.70
2018-09-22T01:02:51.704Z,55.00
2018-09-22T01:05:21.878Z,54.90
2018-09-22T01:07:52.016Z,55.40
2018-09-22T01:10:21.255Z,55.20
2018-09-22T01:12:50.490Z,55.50
2018-09-22T01:15:20.286Z,55.50
2018-09-22T01:17:50.171Z,55.20
2018-09-22T01:20:19.366Z,53.90
2018-09-22T01:22:48.732Z,55.70
2018-09-22T01:25:18.224Z,55.60
2018-09-22T01:27:47.654Z,54.80
2018-09-22T01:30:17.264Z,55.40
2018-09-22T01:32:46.525Z,55.50
2018-09-22T01:35:15.785Z,56.10
2018-09-22T01:37:45.415Z,57.10
2018-09-22T01:40:14.977Z,57.20
2018-09-22T01:42:44.524Z,56.30
2018-09-22T01:45:13.852Z,56.20
2018-09-22T01:47:43.497Z,56.40
2018-09-22T01:50:12.676Z,56.30
2018-09-22T01:52:42.051Z,56.30
2018-09-22T01:55:11.350Z,56.70
2018-09-22T01:57:40.514Z,57.00
2018-09-22T02:00:11.477Z,57.50
2018-09-22T02:02:40.944Z,57.20
2018-09-22T02:05:10.136Z,57.60
2018-09-22T02:07:39.882Z,58.50
2018-09-22T02:10:09.816Z,58.30
2018-09-22T02:12:41.311Z,57.70
2018-09-22T02:15:11.485Z,58.40
2018-09-22T02:17:40.928Z,58.70
2018-09-22T02:20:10.333Z,59.40
2018-09-22T02:22:39.857Z,59.10
2018-09-22T02:25:10.084Z,58.40
2018-09-22T02:27:39.395Z,58.10
2018-09-22T02:30:08.764Z,59.20
2018-09-22T02:32:38.326Z,58.40
2018-09-22T02:35:08.310Z,58.00
2018-09-22T02:37:37.531Z,58.20
2018-09-22T02:40:06.932Z,58.50
2018-09-22T02:42:37.384Z,58.10
2018-09-22T02:45:07.627Z,58.10
2018-09-22T02:47:36.984Z,58.70
2018-09-22T02:50:06.350Z,58.90
2018-09-22T02:52:35.898Z,58.50
2018-09-22T02:55:05.786Z,58.90
2018-09-22T02:57:35.311Z,58.60
2018-09-22T03:00:05.327Z,58.50
2018-09-22T03:02:34.638Z,58.10
2018-09-22T03:05:04.630Z,58.50
2018-09-22T03:07:33.963Z,58.70
2018-09-22T03:10:03.876Z,58.80
2018-09-22T03:12:33.241Z,58.50
2018-09-22T03:15:03.223Z,58.00
2018-09-22T03:17:32.554Z,57.90
2018-09-22T03:20:01.801Z,58.10
2018-09-22T03:22:31.460Z,58.00
2018-09-22T03:25:00.654Z,57.60
2018-09-22T03:27:30.117Z,57.50
2018-09-22T03:29:59.306Z,57.80
2018-09-22T03:32:29.958Z,58.40
2018-09-22T03:35:04.005Z,58.50
2018-09-22T03:37:33.320Z,58.90
2018-09-22T03:40:02.622Z,58.30
2018-09-22T03:42:32.321Z,57.80
2018-09-22T03:45:01.527Z,58.40
2018-09-22T03:47:30.857Z,58.00
2018-09-22T03:50:00.307Z,57.70
2018-09-22T03:52:29.640Z,57.60
2018-09-22T03:55:00.935Z,57.50
2018-09-22T03:57:30.297Z,57.40
2018-09-22T03:59:59.453Z,57.20
2018-09-22T04:02:28.998Z,57.40
2018-09-22T04:04:58.594Z,57.20
2018-09-22T04:07:29.333Z,57.10
2018-09-22T04:09:58.550Z,57.00
2018-09-22T04:12:28.595Z,57.10
2018-09-22T04:14:58.082Z,55.80
2018-09-22T04:17:28.046Z,57.00
2018-09-22T04:19:57.527Z,57.20
2018-09-22T04:22:26.735Z,57.10
2018-09-22T04:24:55.891Z,57.50
2018-09-22T04:27:25.735Z,57.50
2018-09-22T04:29:55.212Z,57.30
2018-09-22T04:32:24.608Z,57.40
2018-09-22T04:34:53.923Z,57.20
2018-09-22T04:37:23.305Z,57.30
2018-09-22T04:39:52.740Z,57.40
2018-09-22T04:42:22.145Z,57.40
2018-09-22T04:44:52.169Z,57.80
2018-09-22T04:47:21.457Z,57.70
2018-09-22T04:49:51.132Z,57.70
2018-09-22T04:52:20.676Z,57.80
2018-09-22T04:54:50.089Z,57.60
2018-09-22T04:57:20.087Z,57.70
2018-09-22T04:59:49.603Z,56.80
2018-09-22T05:02:18.865Z,57.70
2018-09-22T05:04:48.487Z,58.00
2018-09-22T05:07:18.087Z,58.20
2018-09-22T05:09:47.308Z,58.10
2018-09-22T05:12:16.760Z,58.30
2018-09-22T05:14:46.131Z,58.40
2018-09-22T05:17:15.781Z,58.50
2018-09-22T05:19:45.051Z,58.40
2018-09-22T05:22:14.793Z,58.40
2018-09-22T05:24:44.151Z,58.60
2018-09-22T05:27:13.899Z,58.60
2018-09-22T05:29:44.869Z,58.60
2018-09-22T05:32:14.348Z,58.60
2018-09-22T05:34:44.422Z,59.00
2018-09-22T05:37:13.732Z,58.90
2018-09-22T05:39:43.610Z,58.90
2018-09-22T05:42:13.451Z,58.80
2018-09-22T05:44:42.596Z,58.70
2018-09-22T05:47:11.976Z,58.80
2018-09-22T05:49:41.136Z,58.60
2018-09-22T05:52:10.252Z,58.40
2018-09-22T05:54:40.522Z,58.60
2018-09-22T05:57:11.368Z,58.60
2018-09-22T05:59:41.176Z,59.70
2018-09-22T06:02:16.593Z,58.20
2018-09-22T06:04:46.012Z,58.40
2018-09-22T06:07:16.017Z,58.40
2018-09-22T06:09:45.341Z,57.30
2018-09-22T06:12:15.278Z,57.90
2018-09-22T06:14:44.679Z,57.70
2018-09-22T06:17:13.983Z,57.40
2018-09-22T06:19:43.828Z,57.40
2018-09-22T06:22:13.256Z,57.60
2018-09-22T06:24:42.537Z,57.70
2018-09-22T06:27:11.807Z,57.40
2018-09-22T06:29:41.412Z,57.50
2018-09-22T06:32:11.910Z,57.40
2018-09-22T06:34:42.273Z,57.40
2018-09-22T06:37:11.644Z,57.40
2018-09-22T06:40:43.494Z,57.20
2018-09-22T06:43:12.856Z,56.90
2018-09-22T06:45:42.205Z,57.40
2018-09-22T06:48:11.519Z,58.10
2018-09-22T06:50:40.898Z,60.50
2018-09-22T06:53:10.248Z,61.90
2018-09-22T06:55:40.275Z,63.30
2018-09-22T06:58:11.896Z,62.30
2018-09-22T07:00:41.197Z,61.40
2018-09-22T07:03:10.803Z,59.10
2018-09-22T07:05:40.400Z,58.40
2018-09-22T07:08:09.582Z,58.00
2018-09-22T07:10:39.190Z,57.40
2018-09-22T07:13:09.479Z,56.80
2018-09-22T07:15:39.415Z,56.80
2018-09-22T07:18:10.894Z,56.30
2018-09-22T07:20:44.752Z,55.60
2018-09-22T07:23:15.314Z,55.00
2018-09-22T07:25:46.840Z,55.30
2018-09-22T07:28:16.481Z,54.90
2018-09-22T07:30:46.131Z,54.90
2018-09-22T07:33:19.300Z,54.80
2018-09-22T07:35:48.898Z,55.60
2018-09-22T07:38:18.470Z,56.30
2018-09-22T07:40:47.915Z,56.20
2018-09-22T07:43:17.259Z,56.20
2018-09-22T07:45:48.171Z,56.50
2018-09-22T07:48:18.183Z,57.60
2018-09-22T07:50:47.367Z,56.60
2018-09-22T07:53:17.016Z,54.40
2018-09-22T07:55:46.703Z,54.80
2018-09-22T07:58:15.970Z,54.80
2018-09-22T08:00:45.410Z,54.50
2018-09-22T08:03:18.485Z,54.30
2018-09-22T08:05:49.443Z,54.00
2018-09-22T08:08:20.061Z,54.70
2018-09-22T08:10:49.806Z,53.70
2018-09-22T08:13:19.065Z,53.90
2018-09-22T08:15:48.355Z,53.80
2018-09-22T08:18:17.694Z,55.40
2018-09-22T08:20:47.241Z,56.00
2018-09-22T08:23:16.628Z,55.40
2018-09-22T08:25:45.954Z,54.80
2018-09-22T08:28:18.125Z,55.10
2018-09-22T08:30:48.593Z,54.10
2018-09-22T08:33:19.182Z,53.00
2018-09-22T08:35:48.810Z,52.70
2018-09-22T08:38:19.580Z,51.60
2018-09-22T08:40:48.939Z,51.40
2018-09-22T08:43:18.448Z,51.10
2018-09-22T08:45:48.608Z,51.30
2018-09-22T08:48:17.784Z,50.00
2018-09-22T08:50:48.037Z,49.60
2018-09-22T08:53:17.593Z,50.80
2018-09-22T08:55:49.389Z,49.70
2018-09-22T08:58:18.738Z,51.00
2018-09-22T09:00:49.578Z,50.90
2018-09-22T09:03:21.745Z,50.80
2018-09-22T09:05:51.504Z,50.70
2018-09-22T09:08:22.459Z,50.70
2018-09-22T09:10:52.486Z,51.00
2018-09-22T09:13:21.917Z,51.30
2018-09-22T09:15:51.303Z,50.80
2018-09-22T09:18:20.774Z,49.50
2018-09-22T09:20:50.500Z,50.70
2018-09-22T09:23:20.540Z,50.10
2018-09-22T09:25:50.617Z,50.40
2018-09-22T09:28:20.020Z,49.60
2018-09-22T09:30:50.063Z,48.80
2018-09-22T09:33:19.165Z,48.50
2018-09-22T09:35:48.565Z,48.10
2018-09-22T09:38:17.891Z,47.90
2018-09-22T09:40:48.777Z,49.60
2018-09-22T09:43:19.554Z,50.00
2018-09-22T09:45:49.862Z,50.60
2018-09-22T09:48:22.285Z,50.30
2018-09-22T09:50:53.430Z,50.30
2018-09-22T09:53:24.439Z,50.70
2018-09-22T09:55:54.472Z,50.20
2018-09-22T09:58:24.142Z,48.90
2018-09-22T10:00:53.681Z,48.60
2018-09-22T10:03:23.407Z,48.50
2018-09-22T10:05:54.215Z,47.80
2018-09-22T10:08:24.367Z,46.80
2018-09-22T10:10:55.322Z,47.70
2018-09-22T10:13:32.595Z,46.70
2018-09-22T10:16:01.810Z,46.10
2018-09-22T10:18:32.337Z,46.20
2018-09-22T10:21:03.389Z,46.20
2018-09-22T10:23:34.645Z,47.30
2018-09-22T10:26:04.288Z,47.30
2018-09-22T10:28:34.324Z,46.70
2018-09-22T10:33:41.099Z,45.80
2018-09-22T10:36:11.295Z,46.80
2018-09-22T10:38:41.347Z,46.30
2018-09-22T10:41:10.727Z,45.60
2018-09-22T10:43:40.073Z,45.40
2018-09-22T10:46:10.950Z,45.20
2018-09-22T10:48:42.581Z,45.80
2018-09-22T10:51:17.112Z,44.40
2018-09-22T10:53:52.817Z,44.30
2018-09-22T10:56:24.280Z,44.00
2018-09-22T10:58:54.288Z,44.40
2018-09-22T11:01:25.761Z,44.00
2018-09-22T11:03:54.964Z,45.20
2018-09-22T11:06:24.624Z,45.20
2018-09-22T11:08:55.161Z,43.90
2018-09-22T11:11:27.700Z,44.10
2018-09-22T11:13:59.082Z,44.20
2018-09-22T11:16:32.229Z,43.80
2018-09-22T11:19:01.479Z,43.70
2018-09-22T11:21:32.184Z,43.60
2018-09-22T11:24:01.532Z,44.40
2018-09-22T11:26:33.078Z,43.70
2018-09-22T11:29:04.211Z,42.90
2018-09-22T11:31:34.446Z,43.00
2018-09-22T11:34:05.353Z,42.40
2018-09-22T11:36:36.064Z,42.00
2018-09-22T11:39:07.887Z,41.70
2018-09-22T11:41:40.407Z,41.30
2018-09-22T11:44:11.579Z,40.30
2018-09-22T11:46:41.360Z,41.30
2018-09-22T11:49:11.419Z,41.00
2018-09-22T11:51:40.666Z,41.10
2018-09-22T11:54:10.523Z,41.10
2018-09-22T11:56:40.862Z,38.90
2018-09-22T11:59:14.112Z,38.60
2018-09-22T12:01:44.359Z,38.40
2018-09-22T12:04:16.693Z,38.60
2018-09-22T12:06:47.672Z,38.60
2018-09-22T12:09:17.867Z,38.40
2018-09-22T12:11:47.491Z,38.40
2018-09-22T12:14:19.345Z,37.80
2018-09-22T12:16:49.287Z,38.60
2018-09-22T12:19:24.490Z,39.20
2018-09-22T12:21:56.129Z,38.90
2018-09-22T12:24:26.622Z,39.10
2018-09-22T12:26:59.270Z,38.40
2018-09-22T12:29:29.440Z,38.30
2018-09-22T12:32:00.189Z,38.10
2018-09-22T12:34:29.562Z,39.50
2018-09-22T12:37:09.984Z,38.10
2018-09-22T12:39:40.862Z,38.30
2018-09-22T12:42:12.578Z,37.60
2018-09-22T12:44:47.710Z,37.00
2018-09-22T12:47:20.109Z,37.30
2018-09-22T12:49:51.345Z,36.90
2018-09-22T12:52:21.870Z,37.00
2018-09-22T12:54:52.170Z,37.90
2018-09-22T12:57:32.545Z,36.70
2018-09-22T13:00:03.919Z,36.20
2018-09-22T13:02:35.689Z,36.60
2018-09-22T13:05:05.979Z,37.50
2018-09-22T13:07:36.661Z,37.30
2018-09-22T13:10:07.896Z,37.20
2018-09-22T13:12:37.601Z,37.80
2018-09-22T13:15:08.214Z,38.20
2018-09-22T13:17:38.542Z,37.60
2018-09-22T13:20:07.854Z,37.40
2018-09-22T13:22:37.153Z,37.00
2018-09-22T13:25:13.567Z,36.00
2018-09-22T13:27:43.351Z,36.80
2018-09-22T13:30:12.665Z,38.40
2018-09-22T13:32:43.429Z,38.10
2018-09-22T13:35:13.526Z,38.40
2018-09-22T13:37:43.538Z,38.80
2018-09-22T13:40:14.825Z,38.60
2018-09-22T13:42:46.706Z,39.00
2018-09-22T13:45:28.275Z,39.50
2018-09-22T13:48:16.195Z,40.40
2018-09-22T13:50:49.669Z,40.20
2018-09-22T13:53:20.264Z,40.90
2018-09-22T13:55:53.706Z,41.00
2018-09-22T13:58:29.173Z,40.60
2018-09-22T14:01:07.732Z,40.40
2018-09-22T14:03:46.135Z,40.30
2018-09-22T14:06:19.417Z,41.30
2018-09-22T14:08:52.842Z,41.30
2018-09-22T14:11:25.038Z,41.00
2018-09-22T14:13:55.059Z,40.80
2018-09-22T14:16:27.615Z,40.50
2018-09-22T14:18:58.620Z,40.30
2018-09-22T14:21:30.070Z,40.30
2018-09-22T14:24:00.283Z,40.00
2018-09-22T14:26:29.723Z,39.40
2018-09-22T14:28:59.875Z,39.50
2018-09-22T14:31:31.242Z,38.70
2018-09-22T14:34:00.621Z,37.30
2018-09-22T14:36:29.882Z,37.20
2018-09-22T14:39:01.240Z,36.20
2018-09-22T14:41:31.150Z,37.70
2018-09-22T14:44:00.768Z,37.00
2018-09-22T14:46:32.460Z,37.00
2018-09-22T14:49:06.663Z,37.60
2018-09-22T14:51:40.171Z,48.80
2018-09-22T14:54:09.492Z,52.60
2018-09-22T14:56:39.815Z,55.00
2018-09-22T14:59:09.286Z,57.60
2018-09-22T15:01:39.072Z,60.60
2018-09-22T15:04:08.490Z,73.50
2018-09-22T15:06:37.610Z,69.60
2018-09-22T15:09:08.263Z,68.50
2018-09-22T15:11:38.244Z,70.70
2018-09-22T15:14:09.073Z,68.40
2018-09-22T15:16:38.657Z,69.50
2018-09-22T15:19:12.251Z,65.70
2018-09-22T15:21:43.510Z,65.80
2018-09-22T15:24:14.917Z,71.60
2018-09-22T15:26:44.864Z,69.60
2018-09-22T15:29:13.996Z,66.80
2018-09-22T15:31:45.250Z,66.80
2018-09-22T15:34:15.548Z,66.40
2018-09-22T15:36:47.373Z,66.90
2018-09-22T15:39:19.388Z,68.50
2018-09-22T15:41:48.875Z,68.10
2018-09-22T15:44:18.710Z,68.50
2018-09-22T15:46:50.792Z,69.60
2018-09-22T15:49:20.977Z,69.90
2018-09-22T15:51:50.342Z,69.40
2018-09-22T15:54:20.165Z,70.70
2018-09-22T15:56:58.244Z,70.70
2018-09-22T15:59:32.729Z,71.70
2018-09-22T16:02:06.783Z,70.30
2018-09-22T16:04:37.523Z,70.70
2018-09-22T16:07:10.289Z,71.60
2018-09-22T16:09:40.923Z,70.70
2018-09-22T16:12:11.028Z,69.30
2018-09-22T16:14:40.409Z,69.30
2018-09-22T16:17:11.299Z,69.90
2018-09-22T16:19:42.343Z,70.70
2018-09-22T16:22:12.161Z,69.40
2018-09-22T16:24:43.715Z,66.30
2018-09-22T16:27:14.584Z,65.00
2018-09-22T16:29:43.835Z,63.50
2018-09-22T16:32:15.571Z,64.30
2018-09-22T16:35:15.488Z,65.30
2018-09-22T16:37:44.651Z,65.30
2018-09-22T16:40:15.877Z,65.50
2018-09-22T16:42:45.529Z,65.50
2018-09-22T16:45:15.590Z,64.80
2018-09-22T16:47:47.906Z,66.80
2018-09-22T16:50:17.586Z,64.90
2018-09-22T16:52:46.975Z,63.50
2018-09-22T16:55:16.274Z,62.50
2018-09-22T16:57:45.925Z,63.10
2018-09-22T17:05:02.227Z,64.70
2018-09-22T17:07:33.246Z,64.80
2018-09-22T17:10:03.734Z,64.00
2018-09-22T17:12:33.128Z,64.20
2018-09-22T17:15:03.405Z,63.60
2018-09-22T17:17:33.117Z,65.20
2018-09-22T17:20:05.239Z,64.90
2018-09-22T17:22:37.155Z,65.40
2018-09-22T17:25:09.156Z,64.80
2018-09-22T17:27:40.449Z,64.10
2018-09-22T17:30:10.830Z,63.90
2018-09-22T17:32:40.766Z,63.70
2018-09-22T17:35:10.960Z,64.00
2018-09-22T17:37:56.384Z,64.20
2018-09-22T17:40:28.293Z,63.90
2018-09-22T17:42:58.661Z,64.20
2018-09-22T17:45:28.447Z,64.00
2018-09-22T17:47:59.658Z,64.10
2018-09-22T17:50:29.240Z,64.40
2018-09-22T17:53:05.336Z,64.50
2018-09-22T17:55:34.804Z,64.00
2018-09-22T17:58:09.022Z,64.40
2018-09-22T18:00:39.365Z,65.00
2018-09-22T18:03:09.806Z,66.20
2018-09-22T18:05:39.323Z,65.80
2018-09-22T18:08:10.377Z,65.70
2018-09-22T18:10:41.281Z,65.60
2018-09-22T18:13:11.102Z,66.00
2018-09-22T18:15:41.135Z,65.60
2018-09-22T18:18:10.594Z,65.30
2018-09-22T18:20:41.588Z,65.10
2018-09-22T18:23:13.455Z,64.90
2018-09-22T18:25:44.703Z,66.00
2018-09-22T18:28:16.215Z,67.40
2018-09-22T18:30:45.759Z,67.50
2018-09-22T18:35:55.660Z,66.70
2018-09-22T18:38:25.094Z,66.90
2018-09-22T18:40:57.807Z,67.30
2018-09-22T18:43:28.344Z,68.10
2018-09-22T18:45:57.718Z,68.20
2018-09-22T18:48:26.880Z,67.30
2018-09-22T18:50:56.595Z,66.90
2018-09-22T18:54:30.546Z,66.90
2018-09-22T18:57:01.241Z,66.30
2018-09-22T18:59:31.803Z,67.20
2018-09-22T19:02:01.484Z,67.50
2018-09-22T19:04:30.939Z,67.40
2018-09-22T19:07:01.246Z,66.70
2018-09-22T19:09:30.906Z,66.70
2018-09-22T19:12:01.770Z,67.10
2018-09-22T19:15:49.938Z,66.60
2018-09-22T19:18:25.800Z,66.30
2018-09-22T19:21:03.184Z,67.50
2018-09-22T19:23:37.270Z,67.80
2018-09-22T19:26:44.475Z,66.60
2018-09-22T19:30:27.429Z,66.70
2018-09-22T19:33:05.248Z,68.10
2018-09-22T19:35:47.830Z,68.50
2018-09-22T19:38:33.105Z,68.20
2018-09-22T19:41:38.217Z,67.50
2018-09-22T19:44:15.215Z,66.90
2018-09-22T19:46:52.880Z,66.90
2018-09-22T19:49:30.779Z,65.80
2018-09-22T19:52:07.593Z,67.10
2018-09-22T19:54:40.534Z,67.70
2018-09-22T19:57:10.279Z,68.10
2018-09-22T19:59:41.281Z,68.10
2018-09-22T20:02:21.263Z,68.30
2018-09-22T20:04:52.495Z,68.40
2018-09-22T20:07:24.668Z,67.90
2018-09-22T20:09:57.251Z,68.80
2018-09-22T20:12:27.080Z,69.90
2018-09-22T20:14:57.621Z,69.10
2018-09-22T20:17:31.742Z,68.70
2018-09-22T20:20:08.462Z,66.60
2018-09-22T20:22:40.427Z,67.90
2018-09-22T20:25:11.352Z,67.70
2018-09-22T20:27:42.297Z,68.90
2018-09-22T20:30:13.744Z,69.80
2018-09-22T20:32:43.943Z,69.80
2018-09-22T20:35:16.604Z,69.10
2018-09-22T20:37:46.417Z,69.10
2018-09-22T20:40:18.429Z,71.00
2018-09-22T20:42:52.616Z,69.40
2018-09-22T20:45:23.324Z,69.10
2018-09-22T20:47:56.064Z,69.40
2018-09-22T20:50:25.701Z,69.30
2018-09-22T20:52:57.345Z,68.40
2018-09-22T20:55:29.469Z,67.50
2018-09-22T20:58:05.333Z,68.30
2018-09-22T21:00:35.355Z,67.90
2018-09-22T21:03:05.007Z,67.80
2018-09-22T21:05:34.479Z,67.80
2018-09-22T21:08:03.637Z,68.30
2018-09-22T21:10:35.041Z,68.40
2018-09-22T21:13:04.417Z,67.80
2018-09-22T21:15:34.639Z,67.90
2018-09-22T21:18:04.342Z,68.20
2018-09-22T21:20:34.337Z,67.00
2018-09-22T21:23:07.683Z,68.30
2018-09-22T21:25:37.127Z,68.40
2018-09-22T21:28:07.442Z,69.40
2018-09-22T21:30:36.733Z,68.00
2018-09-22T21:33:06.222Z,68.30
2018-09-22T21:35:41.622Z,68.80
2018-09-22T21:38:15.004Z,68.90
2018-09-22T21:40:44.384Z,67.90
2018-09-22T21:43:15.261Z,68.00
2018-09-22T21:45:45.526Z,68.00
2018-09-22T21:48:19.061Z,67.20
2018-09-22T21:50:48.325Z,66.60
2018-09-22T21:53:19.543Z,67.00
2018-09-22T21:55:48.689Z,67.60
2018-09-22T21:58:20.059Z,67.00
2018-09-22T22:00:51.376Z,66.70
2018-09-22T22:03:24.457Z,68.30
2018-09-22T22:05:57.249Z,69.60
2018-09-22T22:08:30.542Z,68.70
2018-09-22T22:11:07.906Z,68.50
2018-09-22T22:13:56.626Z,68.90
2018-09-22T22:16:27.241Z,69.20
2018-09-22T22:19:00.156Z,68.20
2018-09-22T22:21:30.209Z,67.40
2018-09-22T22:24:01.401Z,67.30
2018-09-22T22:26:31.967Z,68.20
2018-09-22T22:29:02.601Z,68.30
2018-09-22T22:31:32.416Z,68.50
2018-09-22T22:34:03.177Z,68.30
2018-09-22T22:36:34.305Z,69.10
2018-09-22T22:39:05.699Z,69.20
2018-09-22T22:41:35.463Z,68.80
2018-09-22T22:44:05.659Z,68.90
2018-09-22T22:46:34.753Z,68.80
2018-09-22T22:49:04.169Z,69.10
2018-09-22T22:51:33.695Z,69.30
2018-09-22T22:54:03.236Z,69.30
2018-09-22T22:56:33.347Z,68.00
2018-09-22T22:59:02.642Z,69.10
2018-09-22T23:01:33.637Z,69.40
2018-09-22T23:04:03.028Z,69.10
2018-09-22T23:06:32.827Z,68.50
2018-09-22T23:09:02.083Z,68.10
2018-09-22T23:11:31.392Z,68.50
2018-09-22T23:14:00.837Z,68.80
2018-09-22T23:16:31.206Z,69.40
2018-09-22T23:19:01.871Z,69.10
2018-09-22T23:21:31.476Z,70.00
2018-09-22T23:24:04.400Z,69.00
2018-09-22T23:26:33.663Z,68.90
2018-09-22T23:29:03.581Z,68.70
2018-09-22T23:31:33.119Z,67.40
2018-09-22T23:34:02.506Z,68.00
2018-09-22T23:36:32.920Z,67.00
2018-09-22T23:39:02.353Z,67.60
2018-09-22T23:41:31.879Z,67.80
2018-09-22T23:44:01.928Z,67.90
2018-09-22T23:46:32.773Z,68.20
2018-09-22T23:49:02.177Z,67.30
2018-09-22T23:51:32.565Z,69.00
2018-09-22T23:54:01.833Z,68.00
2018-09-22T23:56:31.235Z,68.80
2018-09-22T23:59:01.065Z,68.40
